Time;durP1;ratioP1;P1;durP2;ratioP2;P2;SDS_P1;SDS_P2;PMS_P1;PMS_P2;Temp;Humidity;BMP_temperature;BMP_pressure;BME280_temperature;BME280_humidity;BME280_pressure;Samples;Min_cycle;Max_cycle;Signal;HPM_P1;HPM_P2
2022/04/23 00:02:04;;;;;;;6.93;2.30;;;;;;;;;;4934542;29;20118;-73
2022/04/23 00:04:31;;;;;;;7.82;3.17;;;;;;;;;;4936963;29;20136;-76
2022/04/23 00:06:58;;;;;;;5.97;2.45;;;;;;;;;;4927986;29;20142;-75
2022/04/23 00:09:25;;;;;;;4.25;2.10;;;;;;;;;;4932039;29;20131;-75
2022/04/23 00:11:55;;;;;;;4.95;2.20;;;;;;;;;;4929460;29;20160;-75
2022/04/23 00:14:25;;;;;;;6.30;2.20;;;;;;;;;;4923340;29;20059;-76
2022/04/23 00:16:51;;;;;;;6.40;2.28;;;;;;;;;;4932192;29;20159;-80
2022/04/23 00:19:21;;;;;;;8.15;2.72;;;;;;;;;;4933873;29;20047;-76
2022/04/23 00:21:46;;;;;;;7.25;2.80;;;;;;;;;;4928482;29;20477;-74
2022/04/23 00:24:13;;;;;;;6.50;2.90;;;;;;;;;;4932437;29;20055;-75
2022/04/23 00:26:40;;;;;;;4.22;2.33;;;;;;;;;;4929099;29;20054;-75
2022/04/23 00:29:06;;;;;;;4.53;2.20;;;;;;;;;;4934708;29;20048;-75
2022/04/23 00:31:33;;;;;;;5.95;2.17;;;;;;;;;;4930582;29;20052;-75
2022/04/23 00:33:59;;;;;;;6.90;2.70;;;;;;;;;;4921834;29;20040;-74
2022/04/23 00:36:26;;;;;;;5.68;2.50;;;;;;;;;;4927212;29;20043;-74
2022/04/23 00:38:53;;;;;;;3.80;2.20;;;;;;;;;;4924163;29;20139;-75
2022/04/23 00:44:07;;;;;;;2.70;1.60;;;;;;;;;;4922134;29;20059;-74
2022/04/23 00:46:33;;;;;;;3.95;1.67;;;;;;;;;;4930295;29;20131;-74
2022/04/23 00:48:59;;;;;;;2.47;1.40;;;;;;;;;;4928221;29;20043;-75
2022/04/23 00:51:32;;;;;;;3.40;1.40;;;;;;;;;;4930526;29;20556;-74
2022/04/23 00:54:01;;;;;;;2.45;1.35;;;;;;;;;;4932458;29;20143;-74
2022/04/23 00:56:27;;;;;;;2.72;1.30;;;;;;;;;;4930621;29;20090;-75
2022/04/23 00:58:53;;;;;;;2.53;1.60;;;;;;;;;;4930370;29;20040;-76
2022/04/23 01:01:23;;;;;;;3.88;1.30;;;;;;;;;;4936458;29;20111;-74
2022/04/23 01:03:50;;;;;;;3.97;1.42;;;;;;;;;;4933737;29;20071;-75
2022/04/23 01:06:18;;;;;;;3.95;1.50;;;;;;;;;;4926390;29;20080;-76
2022/04/23 01:08:45;;;;;;;3.65;1.30;;;;;;;;;;4931509;29;20052;-76
2022/04/23 01:11:11;;;;;;;4.20;1.65;;;;;;;;;;4936057;29;20070;-76
2022/04/23 01:13:37;;;;;;;4.00;1.60;;;;;;;;;;4926234;29;20048;-76
2022/04/23 01:16:06;;;;;;;2.28;1.70;;;;;;;;;;4925260;29;20058;-75
2022/04/23 01:18:36;;;;;;;3.00;2.00;;;;;;;;;;4933014;29;20132;-77
2022/04/23 01:21:02;;;;;;;3.85;1.80;;;;;;;;;;4929219;29;20062;-76
2022/04/23 01:23:29;;;;;;;9.65;2.55;;;;;;;;;;4923339;29;20144;-76
2022/04/23 01:25:56;;;;;;;5.22;1.00;;;;;;;;;;4932181;29;20083;-76
2022/04/23 01:28:22;;;;;;;1.33;0.90;;;;;;;;;;4936899;29;20048;-76
2022/04/23 01:30:50;;;;;;;6.22;1.00;;;;;;;;;;4926552;29;20055;-73
2022/04/23 01:33:17;;;;;;;2.53;0.90;;;;;;;;;;4931898;29;20382;-74
2022/04/23 01:35:43;;;;;;;1.50;0.70;;;;;;;;;;4925028;29;20071;-72
2022/04/23 01:38:10;;;;;;;1.80;0.68;;;;;;;;;;4920418;29;20347;-73
2022/04/23 01:40:36;;;;;;;1.25;0.60;;;;;;;;;;4930597;29;20100;-75
2022/04/23 01:43:02;;;;;;;2.08;0.50;;;;;;;;;;4929920;29;20054;-75
2022/04/23 01:45:28;;;;;;;0.68;0.50;;;;;;;;;;4929720;29;20163;-76
2022/04/23 01:47:54;;;;;;;3.40;0.60;;;;;;;;;;4930771;29;20055;-80
2022/04/23 01:50:20;;;;;;;1.58;0.60;;;;;;;;;;4922667;29;20110;-76
2022/04/23 01:52:46;;;;;;;2.45;0.68;;;;;;;;;;4946076;29;20051;-75
2022/04/23 01:55:13;;;;;;;1.02;0.70;;;;;;;;;;4926156;29;20056;-74
2022/04/23 01:57:39;;;;;;;0.30;0.30;;;;;;;;;;4928824;29;20189;-72
2022/04/23 02:00:08;;;;;;;0.93;0.35;;;;;;;;;;4927569;29;20513;-73
2022/04/23 02:02:36;;;;;;;1.30;0.43;;;;;;;;;;4925943;29;20058;-73
2022/04/23 02:05:07;;;;;;;0.40;0.30;;;;;;;;;;4929282;29;20115;-75
2022/04/23 02:07:37;;;;;;;0.90;0.30;;;;;;;;;;4927575;29;20494;-73
2022/04/23 02:10:05;;;;;;;0.40;0.40;;;;;;;;;;4926649;29;20847;-73
2022/04/23 02:12:31;;;;;;;2.83;0.30;;;;;;;;;;4931345;29;20494;-75
2022/04/23 02:14:57;;;;;;;1.17;0.38;;;;;;;;;;4931550;29;20062;-73
2022/04/23 02:17:42;;;;;;;0.35;0.22;;;;;;;;;;4931489;29;20048;-75
2022/04/23 02:20:09;;;;;;;;;;;;;;;;;;4930614;29;20106;-74
2022/04/23 02:22:35;;;;;;;1.85;0.40;;;;;;;;;;4931332;29;19926;-73
2022/04/23 02:25:01;;;;;;;0.85;0.40;;;;;;;;;;4925766;29;20060;-72
2022/04/23 02:27:30;;;;;;;1.05;0.50;;;;;;;;;;4929279;29;20056;-75
2022/04/23 02:29:56;;;;;;;0.60;0.40;;;;;;;;;;4927747;29;20052;-73
2022/04/23 02:32:22;;;;;;;0.25;0.25;;;;;;;;;;4929811;29;20043;-73
2022/04/23 02:34:47;;;;;;;0.30;0.30;;;;;;;;;;4928049;29;20197;-73
2022/04/23 02:37:13;;;;;;;0.90;0.50;;;;;;;;;;4931784;29;20493;-74
2022/04/23 02:39:39;;;;;;;0.47;0.30;;;;;;;;;;4928077;29;20052;-73
2022/04/23 02:42:06;;;;;;;1.23;0.60;;;;;;;;;;4930186;29;20055;-75
2022/04/23 02:44:32;;;;;;;0.25;0.25;;;;;;;;;;4926836;29;20047;-74
2022/04/23 02:46:59;;;;;;;0.20;0.20;;;;;;;;;;4931182;29;20104;-72
2022/04/23 02:49:24;;;;;;;0.50;0.25;;;;;;;;;;4930290;29;20088;-75
2022/04/23 02:51:51;;;;;;;1.20;0.40;;;;;;;;;;4929678;29;20736;-74
2022/04/23 02:54:18;;;;;;;0.32;0.30;;;;;;;;;;4920713;29;20079;-72
2022/04/23 02:56:45;;;;;;;0.40;0.40;;;;;;;;;;4934609;29;20126;-74
2022/04/23 02:59:12;;;;;;;1.50;0.30;;;;;;;;;;4933870;29;20052;-73
2022/04/23 03:01:39;;;;;;;0.77;0.38;;;;;;;;;;4923364;29;20442;-72
2022/04/23 03:04:05;;;;;;;0.20;0.20;;;;;;;;;;4930846;29;20051;-74
2022/04/23 03:06:33;;;;;;;0.40;0.30;;;;;;;;;;4931583;29;20068;-73
2022/04/23 03:09:02;;;;;;;0.52;0.40;;;;;;;;;;4933015;29;20049;-73
2022/04/23 03:11:31;;;;;;;0.40;0.40;;;;;;;;;;4921511;29;20202;-73
2022/04/23 03:13:58;;;;;;;1.00;0.40;;;;;;;;;;4932236;29;20055;-73
2022/04/23 03:16:26;;;;;;;1.95;0.50;;;;;;;;;;4929944;29;20050;-73
2022/04/23 03:18:53;;;;;;;0.98;0.43;;;;;;;;;;4930064;29;20085;-71
2022/04/23 03:21:19;;;;;;;0.40;0.40;;;;;;;;;;4929314;29;20078;-73
2022/04/23 03:23:45;;;;;;;0.30;0.30;;;;;;;;;;4933564;29;20147;-73
2022/04/23 03:26:11;;;;;;;0.38;0.38;;;;;;;;;;4927543;29;20059;-74
2022/04/23 03:28:37;;;;;;;0.22;0.22;;;;;;;;;;4933281;29;20055;-75
2022/04/23 03:31:03;;;;;;;0.20;0.20;;;;;;;;;;4933881;29;20497;-73
2022/04/23 03:33:28;;;;;;;0.22;0.20;;;;;;;;;;4932012;29;20044;-74
2022/04/23 03:35:54;;;;;;;0.30;0.30;;;;;;;;;;4929792;29;20175;-73
2022/04/23 03:38:20;;;;;;;0.50;0.22;;;;;;;;;;4931111;29;20162;-71
2022/04/23 03:40:53;;;;;;;0.20;0.20;;;;;;;;;;4930084;29;20062;-74
2022/04/23 03:43:20;;;;;;;0.20;0.20;;;;;;;;;;4934337;29;20055;-72
2022/04/23 03:45:47;;;;;;;0.40;0.30;;;;;;;;;;4934717;29;20557;-73
2022/04/23 03:48:14;;;;;;;0.55;0.43;;;;;;;;;;4936072;29;20103;-73
2022/04/23 03:50:43;;;;;;;0.40;0.30;;;;;;;;;;4936277;29;20044;-72
2022/04/23 03:53:09;;;;;;;0.25;0.25;;;;;;;;;;4916215;29;20498;-72
2022/04/23 03:55:35;;;;;;;0.95;0.52;;;;;;;;;;4932338;29;20059;-74
2022/04/23 03:58:01;;;;;;;0.20;0.20;;;;;;;;;;4926135;29;20048;-75
2022/04/23 04:00:28;;;;;;;0.28;0.28;;;;;;;;;;4944786;29;20052;-74
2022/04/23 04:02:55;;;;;;;0.85;0.40;;;;;;;;;;4934276;29;20070;-75
2022/04/23 04:05:22;;;;;;;1.75;0.50;;;;;;;;;;4935243;28;20178;-75
2022/04/23 04:07:49;;;;;;;0.45;0.30;;;;;;;;;;4931672;29;20497;-76
2022/04/23 04:10:20;;;;;;;0.30;0.28;;;;;;;;;;4931947;29;20458;-75
2022/04/23 04:12:47;;;;;;;0.40;0.40;;;;;;;;;;4931544;29;20117;-75
2022/04/23 04:15:16;;;;;;;0.20;0.20;;;;;;;;;;4934254;29;20071;-74
2022/04/23 04:17:44;;;;;;;3.20;0.40;;;;;;;;;;4934268;29;20039;-77
2022/04/23 04:20:12;;;;;;;0.95;0.40;;;;;;;;;;4931335;29;20489;-74
2022/04/23 04:22:39;;;;;;;0.40;0.40;;;;;;;;;;4945647;29;20044;-75
2022/04/23 04:25:05;;;;;;;1.85;0.50;;;;;;;;;;4928799;29;20524;-75
2022/04/23 04:27:33;;;;;;;0.35;0.28;;;;;;;;;;4929061;29;20060;-76
2022/04/23 04:30:00;;;;;;;2.95;0.40;;;;;;;;;;4932057;29;20056;-77
2022/04/23 04:32:26;;;;;;;0.63;0.50;;;;;;;;;;4931218;29;20048;-74
2022/04/23 04:34:52;;;;;;;0.35;0.30;;;;;;;;;;4934192;29;20079;-76
2022/04/23 04:37:18;;;;;;;2.38;0.40;;;;;;;;;;4937113;29;20106;-73
2022/04/23 04:39:44;;;;;;;0.82;0.50;;;;;;;;;;4930408;29;20052;-74
2022/04/23 04:42:11;;;;;;;0.50;0.50;;;;;;;;;;4930555;29;20493;-74
2022/04/23 04:44:38;;;;;;;0.70;0.60;;;;;;;;;;4934140;29;20099;-75
2022/04/23 04:47:05;;;;;;;0.40;0.40;;;;;;;;;;4930092;29;20087;-73
2022/04/23 04:49:31;;;;;;;0.75;0.50;;;;;;;;;;4932704;29;20462;-71
2022/04/23 04:51:56;;;;;;;0.40;0.40;;;;;;;;;;4927882;29;20046;-70
2022/04/23 04:54:23;;;;;;;0.30;0.30;;;;;;;;;;4930335;29;20082;-72
2022/04/23 04:56:51;;;;;;;0.98;0.45;;;;;;;;;;4929559;29;20114;-71
2022/04/23 04:59:17;;;;;;;1.08;0.73;;;;;;;;;;4932191;29;20490;-72
2022/04/23 05:01:43;;;;;;;0.70;0.50;;;;;;;;;;4920704;29;20079;-71
2022/04/23 05:04:09;;;;;;;0.50;0.40;;;;;;;;;;4930880;29;20557;-71
2022/04/23 05:06:36;;;;;;;0.75;0.70;;;;;;;;;;4927619;29;20130;-73
2022/04/23 05:09:02;;;;;;;0.60;0.50;;;;;;;;;;4929091;29;20047;-72
2022/04/23 05:11:28;;;;;;;2.55;0.50;;;;;;;;;;4944670;29;20474;-71
2022/04/23 05:13:54;;;;;;;0.43;0.43;;;;;;;;;;4928268;29;20156;-73
2022/04/23 05:16:21;;;;;;;0.63;0.50;;;;;;;;;;4929845;29;20122;-73
2022/04/23 05:18:47;;;;;;;0.43;0.43;;;;;;;;;;4931947;29;20048;-72
2022/04/23 05:21:13;;;;;;;0.45;0.40;;;;;;;;;;4927275;29;20247;-72
2022/04/23 05:23:38;;;;;;;1.90;0.60;;;;;;;;;;4928295;29;20501;-72
2022/04/23 05:26:05;;;;;;;1.85;0.68;;;;;;;;;;4921903;29;20044;-74
2022/04/23 05:28:32;;;;;;;1.10;0.60;;;;;;;;;;4933025;29;20135;-78
2022/04/23 05:30:58;;;;;;;1.05;0.60;;;;;;;;;;4929281;29;20436;-74
2022/04/23 05:33:25;;;;;;;1.38;0.40;;;;;;;;;;4928036;29;20047;-73
2022/04/23 05:35:51;;;;;;;0.40;0.40;;;;;;;;;;4928897;29;20508;-72
2022/04/23 05:38:21;;;;;;;0.50;0.45;;;;;;;;;;4930136;29;20071;-72
2022/04/23 05:40:48;;;;;;;1.00;0.90;;;;;;;;;;4933016;29;20047;-74
2022/04/23 05:43:14;;;;;;;1.92;0.50;;;;;;;;;;4928722;29;20051;-74
2022/04/23 05:45:40;;;;;;;1.23;0.50;;;;;;;;;;4931437;29;20043;-72
2022/04/23 05:48:07;;;;;;;3.92;0.68;;;;;;;;;;4928601;29;20047;-73
2022/04/23 05:50:33;;;;;;;1.85;0.60;;;;;;;;;;4923565;29;20408;-75
2022/04/23 05:52:58;;;;;;;0.82;0.70;;;;;;;;;;4929467;29;20042;-71
2022/04/23 05:55:24;;;;;;;0.52;0.47;;;;;;;;;;4931631;29;20086;-72
2022/04/23 05:57:50;;;;;;;3.67;0.65;;;;;;;;;;4927399;29;20549;-73
2022/04/23 06:00:17;;;;;;;2.65;0.73;;;;;;;;;;4927010;29;20470;-74
2022/04/23 06:02:43;;;;;;;0.65;0.47;;;;;;;;;;4928836;29;20040;-75
2022/04/23 06:05:10;;;;;;;0.75;0.50;;;;;;;;;;4930609;29;20039;-74
2022/04/23 06:07:36;;;;;;;0.57;0.40;;;;;;;;;;4927912;29;20087;-72
2022/04/23 06:10:03;;;;;;;2.10;0.40;;;;;;;;;;4929448;29;20050;-73
2022/04/23 06:12:29;;;;;;;1.60;0.50;;;;;;;;;;4927775;29;20067;-76
2022/04/23 06:14:55;;;;;;;0.50;0.25;;;;;;;;;;4934357;29;20059;-75
2022/04/23 06:17:26;;;;;;;0.60;0.50;;;;;;;;;;4928868;29;20110;-77
2022/04/23 06:19:52;;;;;;;0.47;0.38;;;;;;;;;;4929454;29;20039;-73
2022/04/23 06:22:19;;;;;;;0.40;0.40;;;;;;;;;;4931807;29;20413;-74
2022/04/23 06:24:46;;;;;;;0.95;0.30;;;;;;;;;;4927878;29;20056;-75
2022/04/23 06:27:13;;;;;;;0.50;0.40;;;;;;;;;;4941747;29;20111;-75
2022/04/23 06:29:39;;;;;;;0.80;0.55;;;;;;;;;;4929352;29;20107;-77
2022/04/23 06:32:06;;;;;;;0.90;0.50;;;;;;;;;;4945775;28;20045;-75
2022/04/23 06:34:34;;;;;;;1.60;0.60;;;;;;;;;;4925257;29;20412;-74
2022/04/23 06:36:59;;;;;;;0.55;0.40;;;;;;;;;;4916585;29;20083;-75
2022/04/23 06:39:25;;;;;;;0.43;0.40;;;;;;;;;;4928888;29;20063;-78
2022/04/23 06:41:51;;;;;;;0.68;0.50;;;;;;;;;;4929851;29;20050;-75
2022/04/23 06:44:17;;;;;;;1.40;0.50;;;;;;;;;;4926140;29;20054;-75
2022/04/23 06:46:44;;;;;;;1.27;0.60;;;;;;;;;;4928791;29;20070;-77
2022/04/23 06:49:11;;;;;;;1.08;0.50;;;;;;;;;;4928117;29;20048;-78
2022/04/23 06:51:40;;;;;;;1.02;0.50;;;;;;;;;;4924438;29;20100;-73
2022/04/23 06:54:10;;;;;;;0.65;0.30;;;;;;;;;;4931693;29;20043;-79
2022/04/23 06:56:38;;;;;;;1.17;0.60;;;;;;;;;;4925004;29;20056;-76
2022/04/23 06:59:04;;;;;;;1.88;0.57;;;;;;;;;;4928701;29;20059;-77
2022/04/23 07:01:30;;;;;;;1.90;0.55;;;;;;;;;;4924095;29;21008;-76
2022/04/23 07:03:56;;;;;;;1.00;0.70;;;;;;;;;;4928887;29;20063;-79
2022/04/23 07:06:22;;;;;;;2.17;0.68;;;;;;;;;;4923443;29;20475;-79
2022/04/23 07:08:48;;;;;;;4.32;0.70;;;;;;;;;;4929530;29;20150;-79
2022/04/23 07:11:14;;;;;;;0.63;0.50;;;;;;;;;;4924999;29;20051;-75
2022/04/23 07:13:40;;;;;;;0.60;0.60;;;;;;;;;;4920682;29;20533;-79
2022/04/23 07:16:07;;;;;;;1.73;0.55;;;;;;;;;;4915287;29;20050;-76
2022/04/23 07:18:33;;;;;;;0.93;0.73;;;;;;;;;;4929207;29;20501;-76
2022/04/23 07:20:59;;;;;;;1.35;0.70;;;;;;;;;;4924759;29;20134;-75
2022/04/23 07:26:11;;;;;;;1.75;0.98;;;;;;;;;;4928411;29;20048;-76
2022/04/23 07:28:38;;;;;;;2.30;1.02;;;;;;;;;;4926663;29;20564;-75
2022/04/23 07:31:05;;;;;;;1.90;0.90;;;;;;;;;;4925483;29;20043;-73
2022/04/23 07:39:00;;;;;;;3.70;0.90;;;;;;;;;;4926632;29;20899;-74
2022/04/23 07:41:29;;;;;;;6.07;1.25;;;;;;;;;;4928513;29;20606;-78
2022/04/23 07:43:56;;;;;;;2.00;0.90;;;;;;;;;;4924568;29;20065;-73
2022/04/23 07:46:23;;;;;;;1.75;0.90;;;;;;;;;;4926066;29;20079;-76
2022/04/23 07:48:50;;;;;;;2.08;0.70;;;;;;;;;;4930745;29;20347;-80
2022/04/23 07:51:16;;;;;;;0.60;0.60;;;;;;;;;;4932606;29;20043;-77
2022/04/23 07:53:42;;;;;;;2.22;0.80;;;;;;;;;;4935100;29;20047;-73
2022/04/23 07:56:08;;;;;;;2.65;1.00;;;;;;;;;;4931935;29;20044;-76
2022/04/23 07:58:35;;;;;;;2.45;0.80;;;;;;;;;;4930199;29;20167;-71
2022/04/23 08:01:01;;;;;;;2.15;0.88;;;;;;;;;;4931043;29;20051;-71
2022/04/23 08:03:28;;;;;;;1.40;1.05;;;;;;;;;;4925916;29;20157;-73
2022/04/23 08:05:54;;;;;;;1.75;0.80;;;;;;;;;;4926823;29;21084;-71
2022/04/23 08:08:23;;;;;;;2.17;0.70;;;;;;;;;;4926448;29;20152;-75
2022/04/23 08:10:49;;;;;;;2.65;0.60;;;;;;;;;;4932048;29;20548;-73
2022/04/23 08:13:16;;;;;;;1.20;0.88;;;;;;;;;;4930151;29;20044;-74
2022/04/23 08:15:42;;;;;;;2.20;0.90;;;;;;;;;;4945642;29;20054;-75
2022/04/23 08:18:08;;;;;;;3.20;0.60;;;;;;;;;;4928668;29;20048;-75
2022/04/23 08:20:34;;;;;;;1.20;0.80;;;;;;;;;;4929356;29;20530;-73
2022/04/23 08:23:00;;;;;;;3.78;0.80;;;;;;;;;;4927019;29;20125;-72
2022/04/23 08:25:26;;;;;;;1.55;0.70;;;;;;;;;;4922672;29;20094;-70
2022/04/23 08:27:54;;;;;;;1.08;0.80;;;;;;;;;;4925545;29;20059;-73
2022/04/23 08:30:37;;;;;;;2.63;0.77;;;;;;;;;;4933918;29;20167;-72
2022/04/23 08:33:04;;;;;;;2.25;0.60;;;;;;;;;;4942693;29;20047;-70
2022/04/23 08:35:33;;;;;;;1.02;0.63;;;;;;;;;;4926214;29;20051;-68
2022/04/23 08:38:00;;;;;;;3.45;0.70;;;;;;;;;;4922678;29;20048;-71
2022/04/23 08:40:29;;;;;;;2.08;0.80;;;;;;;;;;4922788;29;20411;-72
2022/04/23 08:42:59;;;;;;;1.50;0.60;;;;;;;;;;4919816;29;20531;-69
2022/04/23 08:45:25;;;;;;;0.70;0.60;;;;;;;;;;4924837;29;20142;-71
2022/04/23 08:47:51;;;;;;;5.55;0.80;;;;;;;;;;4921722;29;20047;-71
2022/04/23 08:50:21;;;;;;;0.73;0.60;;;;;;;;;;4918665;29;20039;-74
2022/04/23 08:52:54;;;;;;;1.33;0.85;;;;;;;;;;4918962;29;20052;-72
2022/04/23 08:55:20;;;;;;;0.68;0.50;;;;;;;;;;4924188;29;20138;-74
2022/04/23 08:57:47;;;;;;;1.33;0.50;;;;;;;;;;4927441;29;20050;-74
2022/04/23 09:00:14;;;;;;;0.60;0.60;;;;;;;;;;4928609;29;20044;-74
2022/04/23 09:02:42;;;;;;;1.55;0.65;;;;;;;;;;4920725;29;20115;-69
2022/04/23 09:05:12;;;;;;;3.92;0.60;;;;;;;;;;4925838;29;20043;-73
2022/04/23 09:07:38;;;;;;;1.45;0.60;;;;;;;;;;4927615;29;20055;-74
2022/04/23 09:10:06;;;;;;;1.00;0.65;;;;;;;;;;4920097;29;20116;-73
2022/04/23 09:12:32;;;;;;;1.92;0.57;;;;;;;;;;4922761;29;20055;-73
2022/04/23 09:23:41;;;;;;;2.58;0.55;;;;;;;;;;4920063;29;20143;-75
2022/04/23 09:26:17;;;;;;;1.13;0.57;;;;;;;;;;4920807;29;20044;-70
2022/04/23 09:28:50;;;;;;;1.90;0.50;;;;;;;;;;4922272;29;20883;-74
2022/04/23 09:31:16;;;;;;;0.80;0.55;;;;;;;;;;4923025;29;20166;-75
2022/04/23 09:33:54;;;;;;;6.88;0.52;;;;;;;;;;4921424;29;20055;-72
2022/04/23 09:36:21;;;;;;;6.32;0.80;;;;;;;;;;4914423;29;20174;-70
2022/04/23 09:39:03;;;;;;;1.35;0.60;;;;;;;;;;4915987;29;20090;-67
2022/04/23 09:41:33;;;;;;;0.88;0.50;;;;;;;;;;4921447;29;20184;-71
2022/04/23 09:44:07;;;;;;;4.70;0.60;;;;;;;;;;4923294;29;20047;-70
2022/04/23 09:46:47;;;;;;;1.77;0.40;;;;;;;;;;4924047;29;20341;-72
2022/04/23 09:49:20;;;;;;;2.55;0.50;;;;;;;;;;4923493;29;20051;-72
2022/04/23 09:52:25;;;;;;;1.08;0.60;;;;;;;;;;4919824;29;20344;-70
2022/04/23 09:54:53;;;;;;;2.20;0.60;;;;;;;;;;4872684;29;20094;-69
2022/04/23 09:57:21;;;;;;;1.27;0.40;;;;;;;;;;4932972;29;20047;-70
2022/04/23 09:59:51;;;;;;;0.88;0.40;;;;;;;;;;4924235;29;20467;-69
2022/04/23 10:02:19;;;;;;;1.50;0.50;;;;;;;;;;4921795;29;20047;-70
2022/04/23 10:04:46;;;;;;;0.60;0.40;;;;;;;;;;4927103;29;20066;-71
2022/04/23 10:07:17;;;;;;;2.75;0.55;;;;;;;;;;4925994;29;20060;-72
2022/04/23 10:09:45;;;;;;;1.08;0.60;;;;;;;;;;4925393;29;20039;-69
2022/04/23 10:12:17;;;;;;;1.33;0.70;;;;;;;;;;4924446;29;20417;-70
2022/04/23 10:14:49;;;;;;;2.42;0.60;;;;;;;;;;4928513;29;20059;-70
2022/04/23 10:17:18;;;;;;;0.60;0.43;;;;;;;;;;4926822;29;20051;-72
2022/04/23 10:19:44;;;;;;;1.80;0.50;;;;;;;;;;4927423;29;20143;-72
2022/04/23 10:22:19;;;;;;;1.38;0.40;;;;;;;;;;4942768;29;20071;-76
2022/04/23 10:25:17;;;;;;;0.60;0.40;;;;;;;;;;4930221;29;20529;-70
2022/04/23 10:27:45;;;;;;;0.80;0.60;;;;;;;;;;4927455;29;20064;-70
2022/04/23 10:30:12;;;;;;;1.17;0.43;;;;;;;;;;4929555;29;20062;-69
2022/04/23 10:32:42;;;;;;;2.83;0.52;;;;;;;;;;4928623;29;20051;-72
2022/04/23 10:35:17;;;;;;;2.15;0.63;;;;;;;;;;4929475;29;20056;-71
2022/04/23 10:37:44;;;;;;;0.88;0.40;;;;;;;;;;4928454;29;20516;-69
2022/04/23 10:40:17;;;;;;;0.57;0.50;;;;;;;;;;4926613;29;20043;-70
2022/04/23 10:43:05;;;;;;;0.77;0.40;;;;;;;;;;4925667;29;20087;-70
2022/04/23 10:45:35;;;;;;;0.80;0.50;;;;;;;;;;4929737;29;20059;-69
2022/04/23 10:48:19;;;;;;;0.30;0.20;;;;;;;;;;4929391;29;20055;-70
2022/04/23 10:51:02;;;;;;;1.45;0.57;;;;;;;;;;4928253;29;20055;-69
2022/04/23 10:53:47;;;;;;;3.10;0.50;;;;;;;;;;4928903;29;20147;-71
2022/04/23 10:56:15;;;;;;;0.68;0.60;;;;;;;;;;4927798;29;20040;-70
2022/04/23 10:58:42;;;;;;;1.45;0.50;;;;;;;;;;4927859;29;20060;-71
2022/04/23 11:01:29;;;;;;;5.47;0.70;;;;;;;;;;4928268;29;20043;-70
2022/04/23 11:04:07;;;;;;;1.60;0.50;;;;;;;;;;4931832;29;20060;-75
2022/04/23 11:12:32;;;;;;;0.63;0.45;;;;;;;;;;4930230;29;20042;-71
2022/04/23 11:15:00;;;;;;;2.92;0.93;;;;;;;;;;4929948;29;20052;-69
2022/04/23 11:17:32;;;;;;;2.20;0.75;;;;;;;;;;4930321;29;20059;-69
2022/04/23 11:19:59;;;;;;;1.10;0.68;;;;;;;;;;4930606;29;20055;-72
2022/04/23 11:22:26;;;;;;;1.00;0.60;;;;;;;;;;4942290;29;20186;-71
2022/04/23 11:24:53;;;;;;;2.28;0.90;;;;;;;;;;4929880;29;20075;-69
2022/04/23 11:27:26;;;;;;;1.30;0.90;;;;;;;;;;4930694;29;20058;-68
2022/04/23 11:29:53;;;;;;;6.30;0.95;;;;;;;;;;4927483;29;20151;-69
2022/04/23 11:32:29;;;;;;;2.22;0.60;;;;;;;;;;4926531;29;20465;-71
2022/04/23 11:35:00;;;;;;;4.72;0.70;;;;;;;;;;4930491;29;20056;-70
2022/04/23 11:37:37;;;;;;;5.05;0.80;;;;;;;;;;4928380;29;20405;-69
2022/04/23 11:40:09;;;;;;;3.10;0.73;;;;;;;;;;4928288;29;20052;-68
2022/04/23 11:42:40;;;;;;;7.40;0.95;;;;;;;;;;4927710;29;20456;-70
2022/04/23 11:45:08;;;;;;;1.00;0.50;;;;;;;;;;4930792;29;20052;-70
2022/04/23 11:47:34;;;;;;;1.85;0.50;;;;;;;;;;4943976;29;20369;-74
2022/04/23 11:50:18;;;;;;;1.15;0.60;;;;;;;;;;4928385;29;20135;-71
2022/04/23 11:53:05;;;;;;;9.65;1.08;;;;;;;;;;4926403;29;20114;-70
2022/04/23 11:55:31;;;;;;;0.95;0.60;;;;;;;;;;4929150;29;20067;-71
2022/04/23 11:58:04;;;;;;;1.33;0.60;;;;;;;;;;4930854;29;20080;-72
2022/04/23 12:00:34;;;;;;;0.52;0.40;;;;;;;;;;4928599;29;20059;-68
2022/04/23 12:03:04;;;;;;;1.27;0.50;;;;;;;;;;4928322;29;20060;-67
2022/04/23 12:05:34;;;;;;;1.30;0.73;;;;;;;;;;4925535;29;20233;-66
2022/04/23 12:08:02;;;;;;;1.40;0.60;;;;;;;;;;4928764;29;20055;-68
2022/04/23 12:10:30;;;;;;;2.25;0.73;;;;;;;;;;4928834;29;20134;-68
2022/04/23 12:13:05;;;;;;;1.52;0.50;;;;;;;;;;4927753;29;21500;-67
2022/04/23 12:15:32;;;;;;;2.47;0.60;;;;;;;;;;4926976;29;20155;-67
2022/04/23 12:17:58;;;;;;;1.60;0.30;;;;;;;;;;4927788;29;20287;-66
2022/04/23 12:20:26;;;;;;;0.75;0.50;;;;;;;;;;4925590;29;20062;-68
2022/04/23 12:23:00;;;;;;;1.10;0.52;;;;;;;;;;4922539;29;20177;-68
2022/04/23 12:25:27;;;;;;;0.65;0.50;;;;;;;;;;4926498;29;20055;-67
2022/04/23 12:27:56;;;;;;;1.95;0.50;;;;;;;;;;4926615;29;20051;-67
2022/04/23 12:42:00;;;;;;;2.63;0.47;;;;;;;;;;4929439;29;20290;-68
2022/04/23 12:44:40;;;;;;;1.25;0.50;;;;;;;;;;4927118;29;20055;-70
2022/04/23 12:47:13;;;;;;;1.55;0.50;;;;;;;;;;4928021;29;20501;-66
2022/04/23 12:49:50;;;;;;;4.28;0.65;;;;;;;;;;4930507;29;20048;-67
2022/04/23 12:52:20;;;;;;;2.38;0.70;;;;;;;;;;4928455;29;20052;-68
2022/04/23 12:55:18;;;;;;;1.33;0.70;;;;;;;;;;4927969;29;20054;-67
2022/04/23 12:58:04;;;;;;;0.52;0.30;;;;;;;;;;4925774;29;20094;-68
2022/04/23 13:00:33;;;;;;;1.40;0.47;;;;;;;;;;4925938;29;20407;-68
2022/04/23 13:03:13;;;;;;;0.95;0.50;;;;;;;;;;4922862;29;20146;-66
2022/04/23 13:05:39;;;;;;;0.50;0.50;;;;;;;;;;4924633;29;20082;-66
2022/04/23 13:10:50;;;;;;;1.23;0.40;;;;;;;;;;4923661;29;20047;-67
2022/04/23 13:13:18;;;;;;;1.48;0.75;;;;;;;;;;4924356;29;20059;-68
2022/04/23 13:15:45;;;;;;;2.45;0.43;;;;;;;;;;4925263;29;20063;-66
2022/04/23 13:18:10;;;;;;;0.40;0.30;;;;;;;;;;4925853;29;20052;-71
2022/04/23 13:20:39;;;;;;;2.50;0.60;;;;;;;;;;4940474;29;20067;-68
2022/04/23 13:23:05;;;;;;;2.50;0.40;;;;;;;;;;4923823;29;20048;-69
2022/04/23 13:25:31;;;;;;;0.85;0.30;;;;;;;;;;4926640;29;20051;-67
2022/04/23 13:27:57;;;;;;;3.30;0.38;;;;;;;;;;4927994;29;20058;-66
2022/04/23 13:30:23;;;;;;;1.25;0.40;;;;;;;;;;4925181;29;20293;-68
2022/04/23 13:32:49;;;;;;;0.95;0.35;;;;;;;;;;4924754;29;20043;-67
2022/04/23 13:35:15;;;;;;;1.10;0.40;;;;;;;;;;4924353;29;20055;-69
2022/04/23 13:37:43;;;;;;;1.40;0.85;;;;;;;;;;4926655;29;20052;-68
2022/04/23 13:40:11;;;;;;;1.45;0.80;;;;;;;;;;4925781;29;20106;-68
2022/04/23 13:42:38;;;;;;;3.08;0.45;;;;;;;;;;4938945;29;20047;-68
2022/04/23 13:45:05;;;;;;;4.47;0.77;;;;;;;;;;4924109;29;20118;-67
2022/04/23 13:47:33;;;;;;;0.90;0.60;;;;;;;;;;4925239;29;20438;-69
2022/04/23 13:49:59;;;;;;;0.90;0.28;;;;;;;;;;4925352;29;20130;-67
2022/04/23 13:52:25;;;;;;;1.33;0.30;;;;;;;;;;4921809;29;20044;-68
2022/04/23 13:54:51;;;;;;;3.60;0.38;;;;;;;;;;4928602;29;20055;-69
2022/04/23 13:57:17;;;;;;;1.70;0.30;;;;;;;;;;4923866;29;20069;-70
2022/04/23 13:59:43;;;;;;;5.07;0.30;;;;;;;;;;4943169;29;20391;-68
2022/04/23 14:10:22;;;;;;;4.20;0.50;;;;;;;;;;4925612;29;20405;-66
2022/04/23 14:12:49;;;;;;;0.63;0.40;;;;;;;;;;4924777;29;20062;-67
2022/04/23 14:15:15;;;;;;;2.45;0.50;;;;;;;;;;4924444;29;20050;-67
2022/04/23 14:17:41;;;;;;;1.35;0.30;;;;;;;;;;4925700;29;20054;-69
2022/04/23 14:20:07;;;;;;;3.53;0.45;;;;;;;;;;4924181;29;20056;-66
2022/04/23 14:22:33;;;;;;;0.30;0.30;;;;;;;;;;4924900;29;20073;-72
2022/04/23 14:24:59;;;;;;;0.57;0.32;;;;;;;;;;4926679;29;20060;-66
2022/04/23 14:27:26;;;;;;;1.45;0.28;;;;;;;;;;4925661;29;20407;-67
2022/04/23 14:29:52;;;;;;;1.85;0.50;;;;;;;;;;4925066;29;20446;-66
2022/04/23 14:32:18;;;;;;;4.00;0.40;;;;;;;;;;4924499;29;20130;-68
2022/04/23 14:34:44;;;;;;;3.25;0.32;;;;;;;;;;4925642;29;20044;-66
2022/04/23 14:37:10;;;;;;;1.33;0.40;;;;;;;;;;4924426;29;20383;-66
2022/04/23 14:39:36;;;;;;;0.88;0.40;;;;;;;;;;4925616;29;20139;-67
2022/04/23 14:42:04;;;;;;;0.38;0.30;;;;;;;;;;4925841;29;20183;-67
2022/04/23 14:44:30;;;;;;;4.53;0.50;;;;;;;;;;4926563;29;20162;-67
2022/04/23 14:46:56;;;;;;;0.45;0.20;;;;;;;;;;4925521;29;20115;-66
2022/04/23 14:49:22;;;;;;;0.98;0.50;;;;;;;;;;4925967;29;20086;-66
2022/04/23 14:54:33;;;;;;;2.10;0.52;;;;;;;;;;4928885;29;20071;-65
2022/04/23 14:56:58;;;;;;;1.33;0.45;;;;;;;;;;4928827;29;20090;-65
2022/04/23 14:59:26;;;;;;;2.20;0.30;;;;;;;;;;4931169;29;20138;-65
2022/04/23 15:01:51;;;;;;;0.40;0.40;;;;;;;;;;4930177;29;20044;-67
2022/04/23 15:04:17;;;;;;;3.72;0.30;;;;;;;;;;4932443;29;20048;-70
2022/04/23 15:06:46;;;;;;;1.35;0.28;;;;;;;;;;4928667;29;20050;-66
2022/04/23 15:09:12;;;;;;;3.30;0.40;;;;;;;;;;4928158;29;20044;-66
2022/04/23 15:11:37;;;;;;;2.40;0.30;;;;;;;;;;4926972;29;20048;-67
2022/04/23 15:14:04;;;;;;;0.85;0.20;;;;;;;;;;4928938;29;20051;-65
2022/04/23 15:16:30;;;;;;;1.08;0.60;;;;;;;;;;4927744;29;20122;-67
2022/04/23 15:18:56;;;;;;;0.57;0.50;;;;;;;;;;4927443;29;20067;-65
2022/04/23 15:21:21;;;;;;;4.00;0.50;;;;;;;;;;4925516;29;20048;-66
2022/04/23 15:23:47;;;;;;;2.10;0.50;;;;;;;;;;4927194;29;20409;-66
2022/04/23 15:26:14;;;;;;;1.80;0.32;;;;;;;;;;4926795;29;20051;-65
2022/04/23 15:28:40;;;;;;;0.68;0.40;;;;;;;;;;4928235;29;20066;-65
2022/04/23 15:31:08;;;;;;;1.55;0.30;;;;;;;;;;4928977;29;20047;-66
2022/04/23 15:33:35;;;;;;;0.80;0.40;;;;;;;;;;4928266;29;20067;-67
2022/04/23 15:36:01;;;;;;;1.95;0.50;;;;;;;;;;4945174;29;20059;-66
2022/04/23 15:38:28;;;;;;;1.48;0.32;;;;;;;;;;4929681;29;20163;-67
2022/04/23 15:40:54;;;;;;;2.20;0.50;;;;;;;;;;4926763;29;20040;-69